• Join FlightAware (Why Join?)
  • Login
  • US Flag 
10:59AM EST


 

Airport Tracker/Info


-or-


 

Live Flight TrackerFlight Track Log ✈ N612CT ✈ 19-Jul-2013 ✈ KAPF - X35

Flight Track Log - Related Links

Times and Time Zones

All times are in EDT time to prevent confusion due to time zone crossing. See the N612CT flight status page for this flight to view local times or setup timezone preferences in your user account.

Time Position Orientation Groundspeed Altitude Reporting Facility
EDT Latitude Longitude Course Direction KTS MPH feet Rate Location/Type
01:28PM 26.4274 -81.8000 North  Level FlightAware Approximate
01:29PM 26.4739 -81.8008 355° North  Level FlightAware Approximate
01:30PM 26.5203 -81.8056 355° North  Level FlightAware Approximate
01:31PM 26.5677 -81.8106 355° North  Level FlightAware Approximate
01:32PM 26.6150 -81.8156 355° North  Level FlightAware Approximate
01:33PM 26.6624 -81.8205 355° North  Level FlightAware Approximate
01:34PM 26.7098 -81.8255 355° North  Level FlightAware Approximate
01:35PM 26.7571 -81.8305 355° North  Level FlightAware Approximate
01:36PM 26.8045 -81.8355 355° North  Level FlightAware Approximate
01:37PM 26.8519 -81.8405 355° North  Level FlightAware Approximate
01:38PM 26.8992 -81.8455 355° North  Level FlightAware Approximate
01:38PM 26.7947 -81.7900 354° North 179 206 6,000  Level Miami Center
01:39PM 26.9466 -81.8504 355° North  Level FlightAware Approximate
01:39PM 26.8467 -81.8014 349° North 179 206 6,000  Level Miami Center
01:40PM 26.9939 -81.8555 355° North  Level FlightAware Approximate
01:40PM 26.8964 -81.8081 353° North 179 206 6,000  Level Miami Center
01:41PM 27.0413 -81.8605 355° North  Level FlightAware Approximate
01:41PM 26.9439 -81.8217 346° North 179 206 6,000  Level Miami Center
01:42PM 27.0887 -81.8655 355° North  Level FlightAware Approximate
01:42PM 26.9897 -81.8261 355° North 179 206 6,000  Level Miami Center
01:43PM 27.1360 -81.8707 354° North  Level FlightAware Approximate
01:43PM 27.0417 -81.8353 351° North 179 206 6,000  Level Miami Center
01:44PM 27.0914 -81.8444 351° North 179 206 6,000  Level Miami Center
01:45PM 27.1308 -81.8531 349° North 179 206 6,000  Level Miami Center
01:46PM 27.1908 -81.8650 350° North 179 206 6,000  Level Miami Center
01:47PM 27.2386 -81.8742 350° North 179 206 6,000  Level Miami Center
01:48PM 27.2883 -81.8833 351° North 179 206 6,000  Level Miami Center
01:49PM 27.3381 -81.8925 351° North 179 206 6,000  Level Miami Center
01:50PM 27.3878 -81.9017 351° North 179 206 6,000  Level Miami Center
01:51PM 27.4378 -81.9108 351° North 179 206 6,000  Level Miami Center
01:52PM 27.4875 -81.9200 351° North 179 206 6,000  Level Miami Center
01:53PM 27.5372 -81.9292 351° North 179 206 6,000  Level Miami Center
01:54PM 27.5869 -81.9361 353° North 179 206 6,000  Level Miami Center
01:55PM 27.6325 -81.9453 350° North 179 206 6,000  Level Miami Center
01:56PM 27.6822 -81.9544 351° North 179 206 6,000  Level Miami Center
01:57PM 27.7322 -81.9636 351° North 179 206 6,000  Level Miami Center
01:58PM 27.7839 -81.9753 349° North 179 206 6,000  Level Miami Center
01:59PM 27.8336 -81.9847 350° North 184 212 6,000  Level Miami Center
02:00PM 27.8833 -81.9939 351° North 184 212 6,000  Level Miami Center
02:01PM 27.9331 -82.0056 348° North 179 206 6,000  Level Miami Center
02:02PM 27.9833 -82.0167 349° North 183 211 6,000  Level Tampa TRACON
02:03PM 28.0333 -82.0333 344° North 182 209 6,000  Level Tampa TRACON
02:04PM 28.0833 -82.0500 344° North 180 207 6,000  Level Tampa TRACON
02:05PM 28.1333 -82.0667 344° North 181 208 6,000  Level Tampa TRACON
02:06PM 28.1833 -82.0833 344° North 181 208 6,000  Level Tampa TRACON
02:07PM 28.2167 -82.1000 336° Northwest 179 206 6,000  Level Tampa TRACON
02:08PM 28.2667 -82.1167 344° North 181 208 6,000  Level Tampa TRACON
02:09PM 28.3167 -82.1500 330° Northwest 179 206 6,000  Level Tampa TRACON
02:10PM 28.3333 -82.1667 319° Northwest 176 203 6,000  Level Tampa TRACON
02:11PM 28.3667 -82.2167 307° West 175 201 6,000  Level Tampa TRACON
02:12PM 28.4000 -82.2500 319° Northwest 172 198 6,000  Level Tampa TRACON
02:13PM 28.4500 -82.2833 330° Northwest 170 196 6,000  Level Tampa TRACON
02:14PM 28.4667 -82.3167 300° West 171 197 6,000  Level Tampa TRACON
02:15PM 28.5000 -82.3667 307° West 172 198 6,000 -60 Level Tampa TRACON
02:16PM 28.5392 -82.3917 331° Northwest 172 198 5,900 -120 Descending Jacksonville Center
02:16PM 28.5622 -82.3939 355° North 189 217 5,900  Level Jacksonville Center
02:17PM 28.6186 -82.3911 North 185 213 5,900  Level Jacksonville Center
02:18PM 28.6706 -82.3886 North 181 208 5,900  Level Jacksonville Center
02:19PM 28.7228 -82.3906 358° North 182 209 5,900 -120 Level Jacksonville Center
02:20PM 28.7686 -82.3881 North 185 213 5,700 -420 Descending Jacksonville Center
02:21PM 28.8250 -82.3853 North 196 226 5,200 -540 Descending Jacksonville Center
02:22PM 28.8772 -82.3828 North 172 198 4,700 -540 Descending Jacksonville Center
02:23PM 28.9211 -82.3944 347° North 156 180 4,200 -540 Descending Jacksonville Center
02:24PM 28.9692 -82.3869 North 164 189 3,600 -720 Descending Jacksonville Center
02:25PM 29.0131 -82.3844 North 160 184 2,700 -1,140 Descending Jacksonville Center
02:26PM 29.0525 -82.3675 21° North 139 160 1,300 -1,080 Descending Jacksonville Center
02:27PM 29.0753 -82.3486 36° Northeast 109 125 600 -480 Descending Jacksonville Center
02:28PM 29.0775 -82.3700 277° West 90 104 400 -120 Descending Jacksonville Center
02:30PM 29.0775 -82.3722 270° West 90 104 400  Level Jacksonville Center
02:32PM 29.0775 -82.3722 270° West 90 104 400  Level Jacksonville Center
02:34PM 29.0775 -82.3722 270° West 90 104 400  Level Jacksonville Center
02:36PM 29.0775 -82.3722 270° West 90 104 400  Level Jacksonville Center